sensor_id;sensor_type;location;lat;lon;timestamp;P1;durP1;ratioP1;P2;durP2;ratioP2
41446;SDS011;27185;52.040;4.490;2023-02-18T00:02:07;49.10;;;20.98;;
41446;SDS011;27185;52.040;4.490;2023-02-18T00:04:53;39.97;;;20.70;;
41446;SDS011;27185;52.040;4.490;2023-02-18T00:07:39;44.70;;;23.35;;
41446;SDS011;27185;52.040;4.490;2023-02-18T00:10:25;48.78;;;24.33;;
41446;SDS011;27185;52.040;4.490;2023-02-18T00:13:10;53.78;;;24.67;;
41446;SDS011;27185;52.040;4.490;2023-02-18T00:16:14;48.78;;;22.90;;
41446;SDS011;27185;52.040;4.490;2023-02-18T00:19:01;48.17;;;22.85;;
41446;SDS011;27185;52.040;4.490;2023-02-18T00:21:48;47.45;;;22.00;;
41446;SDS011;27185;52.040;4.490;2023-02-18T00:24:33;33.22;;;18.90;;
41446;SDS011;27185;52.040;4.490;2023-02-18T00:27:19;42.13;;;21.17;;
41446;SDS011;27185;52.040;4.490;2023-02-18T00:30:05;35.80;;;19.88;;
41446;SDS011;27185;52.040;4.490;2023-02-18T00:32:51;41.38;;;21.08;;
41446;SDS011;27185;52.040;4.490;2023-02-18T00:35:36;42.50;;;19.55;;
41446;SDS011;27185;52.040;4.490;2023-02-18T00:38:22;40.17;;;19.67;;
41446;SDS011;27185;52.040;4.490;2023-02-18T00:41:08;42.58;;;23.02;;
41446;SDS011;27185;52.040;4.490;2023-02-18T00:43:53;46.00;;;23.38;;
41446;SDS011;27185;52.040;4.490;2023-02-18T00:46:40;39.17;;;20.88;;
41446;SDS011;27185;52.040;4.490;2023-02-18T00:49:26;45.53;;;23.67;;
41446;SDS011;27185;52.040;4.490;2023-02-18T00:52:11;45.30;;;22.10;;
41446;SDS011;27185;52.040;4.490;2023-02-18T00:54:57;44.90;;;23.42;;
41446;SDS011;27185;52.040;4.490;2023-02-18T00:57:42;46.67;;;22.55;;
41446;SDS011;27185;52.040;4.490;2023-02-18T01:00:28;43.20;;;23.50;;
41446;SDS011;27185;52.040;4.490;2023-02-18T01:03:14;38.30;;;20.63;;
41446;SDS011;27185;52.040;4.490;2023-02-18T01:05:59;38.42;;;22.00;;
41446;SDS011;27185;52.040;4.490;2023-02-18T01:08:45;51.17;;;24.67;;
41446;SDS011;27185;52.040;4.490;2023-02-18T01:11:31;42.72;;;21.92;;
41446;SDS011;27185;52.040;4.490;2023-02-18T01:14:16;44.25;;;21.88;;
41446;SDS011;27185;52.040;4.490;2023-02-18T01:17:02;45.45;;;22.25;;
41446;SDS011;27185;52.040;4.490;2023-02-18T01:19:48;43.67;;;22.65;;
41446;SDS011;27185;52.040;4.490;2023-02-18T01:22:33;44.90;;;23.25;;
41446;SDS011;27185;52.040;4.490;2023-02-18T01:25:19;45.53;;;21.77;;
41446;SDS011;27185;52.040;4.490;2023-02-18T01:28:05;40.97;;;22.13;;
41446;SDS011;27185;52.040;4.490;2023-02-18T01:30:52;35.60;;;20.55;;
41446;SDS011;27185;52.040;4.490;2023-02-18T01:33:38;44.78;;;20.40;;
41446;SDS011;27185;52.040;4.490;2023-02-18T01:36:23;39.42;;;20.00;;
41446;SDS011;27185;52.040;4.490;2023-02-18T01:39:09;39.33;;;20.70;;
41446;SDS011;27185;52.040;4.490;2023-02-18T01:41:54;36.40;;;18.60;;
41446;SDS011;27185;52.040;4.490;2023-02-18T01:44:40;40.47;;;20.17;;
41446;SDS011;27185;52.040;4.490;2023-02-18T01:47:27;39.20;;;20.83;;
41446;SDS011;27185;52.040;4.490;2023-02-18T01:50:13;39.78;;;19.73;;
41446;SDS011;27185;52.040;4.490;2023-02-18T01:52:59;48.67;;;21.95;;
41446;SDS011;27185;52.040;4.490;2023-02-18T01:55:45;48.92;;;22.73;;
41446;SDS011;27185;52.040;4.490;2023-02-18T01:58:32;50.92;;;23.23;;
41446;SDS011;27185;52.040;4.490;2023-02-18T02:01:19;47.60;;;21.77;;
41446;SDS011;27185;52.040;4.490;2023-02-18T02:04:05;42.90;;;22.30;;
41446;SDS011;27185;52.040;4.490;2023-02-18T02:06:50;44.63;;;23.48;;
41446;SDS011;27185;52.040;4.490;2023-02-18T02:09:36;40.15;;;21.52;;
41446;SDS011;27185;52.040;4.490;2023-02-18T02:15:31;43.65;;;23.60;;
41446;SDS011;27185;52.040;4.490;2023-02-18T02:40:06;36.17;;;20.30;;
41446;SDS011;27185;52.040;4.490;2023-02-18T02:46:08;38.70;;;19.85;;
41446;SDS011;27185;52.040;4.490;2023-02-18T02:52:22;30.73;;;17.50;;
41446;SDS011;27185;52.040;4.490;2023-02-18T02:55:14;26.95;;;13.73;;
41446;SDS011;27185;52.040;4.490;2023-02-18T02:58:00;23.80;;;13.13;;
41446;SDS011;27185;52.040;4.490;2023-02-18T03:00:54;22.67;;;11.27;;
41446;SDS011;27185;52.040;4.490;2023-02-18T03:15:44;12.48;;;6.97;;
41446;SDS011;27185;52.040;4.490;2023-02-18T03:18:45;13.10;;;7.85;;
41446;SDS011;27185;52.040;4.490;2023-02-18T03:21:46;16.38;;;7.35;;
41446;SDS011;27185;52.040;4.490;2023-02-18T03:24:36;21.77;;;10.10;;
41446;SDS011;27185;52.040;4.490;2023-02-18T03:27:30;20.00;;;9.68;;
41446;SDS011;27185;52.040;4.490;2023-02-18T03:30:23;19.50;;;10.02;;
41446;SDS011;27185;52.040;4.490;2023-02-18T03:33:58;17.35;;;10.65;;
41446;SDS011;27185;52.040;4.490;2023-02-18T03:36:20;20.15;;;9.73;;
41446;SDS011;27185;52.040;4.490;2023-02-18T03:39:08;19.70;;;10.45;;
41446;SDS011;27185;52.040;4.490;2023-02-18T03:41:58;17.77;;;9.38;;
41446;SDS011;27185;52.040;4.490;2023-02-18T03:44:44;15.68;;;9.85;;
41446;SDS011;27185;52.040;4.490;2023-02-18T03:47:29;18.08;;;9.30;;
41446;SDS011;27185;52.040;4.490;2023-02-18T03:50:15;18.40;;;11.10;;
41446;SDS011;27185;52.040;4.490;2023-02-18T03:53:01;20.38;;;11.23;;
41446;SDS011;27185;52.040;4.490;2023-02-18T03:55:46;23.30;;;12.30;;
41446;SDS011;27185;52.040;4.490;2023-02-18T03:58:32;18.23;;;11.80;;
41446;SDS011;27185;52.040;4.490;2023-02-18T04:01:18;21.27;;;13.20;;
41446;SDS011;27185;52.040;4.490;2023-02-18T04:04:03;21.95;;;13.00;;
41446;SDS011;27185;52.040;4.490;2023-02-18T04:06:50;21.58;;;13.85;;
41446;SDS011;27185;52.040;4.490;2023-02-18T04:09:37;28.77;;;15.13;;
41446;SDS011;27185;52.040;4.490;2023-02-18T04:12:22;26.65;;;13.95;;
41446;SDS011;27185;52.040;4.490;2023-02-18T04:15:08;22.55;;;12.95;;
41446;SDS011;27185;52.040;4.490;2023-02-18T04:17:54;25.00;;;14.15;;
41446;SDS011;27185;52.040;4.490;2023-02-18T04:20:39;26.17;;;13.95;;
41446;SDS011;27185;52.040;4.490;2023-02-18T04:23:25;29.55;;;14.65;;
41446;SDS011;27185;52.040;4.490;2023-02-18T04:26:11;28.80;;;13.80;;
41446;SDS011;27185;52.040;4.490;2023-02-18T04:28:57;32.35;;;14.93;;
41446;SDS011;27185;52.040;4.490;2023-02-18T04:31:42;37.20;;;16.55;;
41446;SDS011;27185;52.040;4.490;2023-02-18T04:34:28;37.70;;;15.63;;
41446;SDS011;27185;52.040;4.490;2023-02-18T04:37:13;33.13;;;14.52;;
41446;SDS011;27185;52.040;4.490;2023-02-18T04:39:59;29.65;;;13.80;;
41446;SDS011;27185;52.040;4.490;2023-02-18T04:42:44;31.33;;;14.52;;
41446;SDS011;27185;52.040;4.490;2023-02-18T04:45:30;33.70;;;15.75;;
41446;SDS011;27185;52.040;4.490;2023-02-18T04:48:16;28.20;;;14.02;;
41446;SDS011;27185;52.040;4.490;2023-02-18T04:51:02;26.80;;;14.05;;
41446;SDS011;27185;52.040;4.490;2023-02-18T04:53:48;25.80;;;14.82;;
41446;SDS011;27185;52.040;4.490;2023-02-18T04:56:33;29.85;;;13.93;;
41446;SDS011;27185;52.040;4.490;2023-02-18T04:59:19;29.05;;;14.13;;
41446;SDS011;27185;52.040;4.490;2023-02-18T05:02:05;27.92;;;13.63;;
41446;SDS011;27185;52.040;4.490;2023-02-18T05:04:50;33.08;;;16.45;;
41446;SDS011;27185;52.040;4.490;2023-02-18T05:07:36;29.85;;;13.48;;
41446;SDS011;27185;52.040;4.490;2023-02-18T05:10:21;28.00;;;13.77;;
41446;SDS011;27185;52.040;4.490;2023-02-18T05:13:07;26.92;;;13.98;;
41446;SDS011;27185;52.040;4.490;2023-02-18T05:15:53;27.50;;;12.75;;
41446;SDS011;27185;52.040;4.490;2023-02-18T05:18:38;27.45;;;13.13;;
41446;SDS011;27185;52.040;4.490;2023-02-18T05:21:24;28.23;;;14.23;;
41446;SDS011;27185;52.040;4.490;2023-02-18T05:24:10;26.83;;;13.35;;
41446;SDS011;27185;52.040;4.490;2023-02-18T05:26:55;24.60;;;13.15;;
41446;SDS011;27185;52.040;4.490;2023-02-18T05:29:41;24.33;;;12.35;;
41446;SDS011;27185;52.040;4.490;2023-02-18T05:32:26;20.55;;;11.27;;
41446;SDS011;27185;52.040;4.490;2023-02-18T05:35:12;21.25;;;12.70;;
41446;SDS011;27185;52.040;4.490;2023-02-18T05:37:58;20.05;;;11.57;;
41446;SDS011;27185;52.040;4.490;2023-02-18T05:40:43;19.52;;;11.77;;
41446;SDS011;27185;52.040;4.490;2023-02-18T05:43:29;16.35;;;10.63;;
41446;SDS011;27185;52.040;4.490;2023-02-18T05:46:15;21.60;;;11.40;;
41446;SDS011;27185;52.040;4.490;2023-02-18T05:49:00;22.85;;;12.52;;
41446;SDS011;27185;52.040;4.490;2023-02-18T05:51:46;27.40;;;13.07;;
41446;SDS011;27185;52.040;4.490;2023-02-18T05:54:32;23.75;;;13.23;;
41446;SDS011;27185;52.040;4.490;2023-02-18T05:57:18;23.63;;;13.98;;
41446;SDS011;27185;52.040;4.490;2023-02-18T06:00:04;29.60;;;14.35;;
41446;SDS011;27185;52.040;4.490;2023-02-18T06:02:51;32.80;;;14.70;;
41446;SDS011;27185;52.040;4.490;2023-02-18T06:05:37;33.05;;;15.80;;
41446;SDS011;27185;52.040;4.490;2023-02-18T06:08:22;28.92;;;13.77;;
41446;SDS011;27185;52.040;4.490;2023-02-18T06:11:08;34.83;;;14.80;;
41446;SDS011;27185;52.040;4.490;2023-02-18T06:13:54;35.83;;;13.65;;
41446;SDS011;27185;52.040;4.490;2023-02-18T06:16:39;29.98;;;12.27;;
41446;SDS011;27185;52.040;4.490;2023-02-18T06:19:25;28.38;;;12.05;;
41446;SDS011;27185;52.040;4.490;2023-02-18T06:22:10;34.75;;;11.18;;
41446;SDS011;27185;52.040;4.490;2023-02-18T06:24:56;31.10;;;11.45;;
41446;SDS011;27185;52.040;4.490;2023-02-18T06:27:42;30.58;;;11.35;;
41446;SDS011;27185;52.040;4.490;2023-02-18T06:30:27;38.70;;;12.02;;
41446;SDS011;27185;52.040;4.490;2023-02-18T06:33:13;29.95;;;9.70;;
41446;SDS011;27185;52.040;4.490;2023-02-18T06:36:03;38.30;;;10.95;;
41446;SDS011;27185;52.040;4.490;2023-02-18T06:38:55;19.30;;;8.10;;
41446;SDS011;27185;52.040;4.490;2023-02-18T06:41:43;33.47;;;9.70;;
41446;SDS011;27185;52.040;4.490;2023-02-18T06:44:28;43.95;;;9.80;;
41446;SDS011;27185;52.040;4.490;2023-02-18T06:47:14;35.28;;;8.85;;
41446;SDS011;27185;52.040;4.490;2023-02-18T06:49:59;26.45;;;7.18;;
41446;SDS011;27185;52.040;4.490;2023-02-18T06:52:45;34.63;;;7.78;;
41446;SDS011;27185;52.040;4.490;2023-02-18T06:55:31;34.85;;;7.32;;
41446;SDS011;27185;52.040;4.490;2023-02-18T06:58:16;35.30;;;7.25;;
41446;SDS011;27185;52.040;4.490;2023-02-18T07:01:02;37.80;;;6.10;;
41446;SDS011;27185;52.040;4.490;2023-02-18T07:03:48;35.75;;;5.90;;
41446;SDS011;27185;52.040;4.490;2023-02-18T07:06:34;33.17;;;5.45;;
41446;SDS011;27185;52.040;4.490;2023-02-18T07:09:19;29.38;;;5.55;;
41446;SDS011;27185;52.040;4.490;2023-02-18T07:12:05;32.85;;;5.30;;
41446;SDS011;27185;52.040;4.490;2023-02-18T07:14:50;38.88;;;5.95;;
41446;SDS011;27185;52.040;4.490;2023-02-18T07:17:36;35.38;;;5.32;;
41446;SDS011;27185;52.040;4.490;2023-02-18T07:20:22;32.95;;;4.45;;
41446;SDS011;27185;52.040;4.490;2023-02-18T07:23:08;26.85;;;4.13;;
41446;SDS011;27185;52.040;4.490;2023-02-18T07:26:02;30.92;;;5.00;;
41446;SDS011;27185;52.040;4.490;2023-02-18T07:28:51;27.67;;;4.55;;
41446;SDS011;27185;52.040;4.490;2023-02-18T07:31:37;25.60;;;4.57;;
41446;SDS011;27185;52.040;4.490;2023-02-18T07:34:23;33.72;;;4.85;;
41446;SDS011;27185;52.040;4.490;2023-02-18T07:37:08;30.38;;;4.55;;
41446;SDS011;27185;52.040;4.490;2023-02-18T07:39:54;34.42;;;5.45;;
41446;SDS011;27185;52.040;4.490;2023-02-18T07:42:40;37.65;;;4.72;;
41446;SDS011;27185;52.040;4.490;2023-02-18T07:45:25;28.35;;;4.32;;
41446;SDS011;27185;52.040;4.490;2023-02-18T07:48:11;29.88;;;5.20;;
41446;SDS011;27185;52.040;4.490;2023-02-18T07:50:57;31.63;;;4.35;;
41446;SDS011;27185;52.040;4.490;2023-02-18T07:53:42;31.30;;;4.68;;
41446;SDS011;27185;52.040;4.490;2023-02-18T07:56:28;31.77;;;4.68;;
41446;SDS011;27185;52.040;4.490;2023-02-18T07:59:13;25.80;;;4.25;;
41446;SDS011;27185;52.040;4.490;2023-02-18T08:01:59;29.70;;;5.60;;
41446;SDS011;27185;52.040;4.490;2023-02-18T08:04:45;34.35;;;4.55;;
41446;SDS011;27185;52.040;4.490;2023-02-18T08:07:32;31.77;;;4.68;;
41446;SDS011;27185;52.040;4.490;2023-02-18T08:10:17;30.55;;;4.20;;
41446;SDS011;27185;52.040;4.490;2023-02-18T08:13:03;26.02;;;4.10;;
41446;SDS011;27185;52.040;4.490;2023-02-18T08:15:49;36.08;;;5.00;;
41446;SDS011;27185;52.040;4.490;2023-02-18T08:18:34;30.58;;;5.22;;
41446;SDS011;27185;52.040;4.490;2023-02-18T08:21:20;26.67;;;4.18;;
41446;SDS011;27185;52.040;4.490;2023-02-18T08:24:07;34.15;;;4.85;;
41446;SDS011;27185;52.040;4.490;2023-02-18T08:26:53;30.23;;;4.82;;
41446;SDS011;27185;52.040;4.490;2023-02-18T08:29:38;30.10;;;4.88;;
41446;SDS011;27185;52.040;4.490;2023-02-18T08:32:27;35.22;;;5.20;;
41446;SDS011;27185;52.040;4.490;2023-02-18T08:35:13;28.38;;;3.90;;
41446;SDS011;27185;52.040;4.490;2023-02-18T08:37:59;23.40;;;4.25;;
41446;SDS011;27185;52.040;4.490;2023-02-18T08:40:44;26.20;;;4.32;;
41446;SDS011;27185;52.040;4.490;2023-02-18T08:43:30;23.27;;;3.47;;
41446;SDS011;27185;52.040;4.490;2023-02-18T08:46:16;23.38;;;4.03;;
41446;SDS011;27185;52.040;4.490;2023-02-18T08:49:02;24.45;;;3.88;;
41446;SDS011;27185;52.040;4.490;2023-02-18T08:51:49;29.63;;;4.03;;
41446;SDS011;27185;52.040;4.490;2023-02-18T08:54:35;28.55;;;4.00;;
41446;SDS011;27185;52.040;4.490;2023-02-18T08:57:20;37.22;;;5.45;;
41446;SDS011;27185;52.040;4.490;2023-02-18T09:00:06;22.92;;;4.35;;
41446;SDS011;27185;52.040;4.490;2023-02-18T09:02:52;28.45;;;4.10;;
41446;SDS011;27185;52.040;4.490;2023-02-18T09:05:38;24.83;;;3.00;;
41446;SDS011;27185;52.040;4.490;2023-02-18T09:08:24;38.25;;;6.60;;
41446;SDS011;27185;52.040;4.490;2023-02-18T09:11:10;33.80;;;4.57;;
41446;SDS011;27185;52.040;4.490;2023-02-18T09:13:56;30.00;;;4.50;;
41446;SDS011;27185;52.040;4.490;2023-02-18T09:16:41;24.00;;;3.13;;
41446;SDS011;27185;52.040;4.490;2023-02-18T09:19:27;32.05;;;4.50;;
41446;SDS011;27185;52.040;4.490;2023-02-18T09:22:13;28.40;;;4.13;;
41446;SDS011;27185;52.040;4.490;2023-02-18T09:24:59;30.33;;;4.90;;
41446;SDS011;27185;52.040;4.490;2023-02-18T09:27:44;23.35;;;3.78;;
41446;SDS011;27185;52.040;4.490;2023-02-18T09:30:30;25.50;;;3.80;;
41446;SDS011;27185;52.040;4.490;2023-02-18T09:33:15;30.33;;;5.22;;
41446;SDS011;27185;52.040;4.490;2023-02-18T09:36:02;34.20;;;5.07;;
41446;SDS011;27185;52.040;4.490;2023-02-18T09:38:48;29.20;;;4.10;;
41446;SDS011;27185;52.040;4.490;2023-02-18T09:47:35;29.70;;;4.03;;
41446;SDS011;27185;52.040;4.490;2023-02-18T09:50:27;26.27;;;4.18;;
41446;SDS011;27185;52.040;4.490;2023-02-18T09:53:15;27.80;;;4.38;;
41446;SDS011;27185;52.040;4.490;2023-02-18T09:56:02;24.70;;;4.03;;
41446;SDS011;27185;52.040;4.490;2023-02-18T09:58:48;29.92;;;4.05;;
41446;SDS011;27185;52.040;4.490;2023-02-18T10:01:35;33.20;;;5.18;;
41446;SDS011;27185;52.040;4.490;2023-02-18T10:04:25;25.75;;;4.32;;
41446;SDS011;27185;52.040;4.490;2023-02-18T10:07:18;22.95;;;3.75;;
41446;SDS011;27185;52.040;4.490;2023-02-18T10:13:17;28.75;;;3.85;;
41446;SDS011;27185;52.040;4.490;2023-02-18T10:16:04;27.95;;;4.35;;
41446;SDS011;27185;52.040;4.490;2023-02-18T10:18:52;22.67;;;3.65;;
41446;SDS011;27185;52.040;4.490;2023-02-18T10:21:40;21.27;;;3.97;;
41446;SDS011;27185;52.040;4.490;2023-02-18T10:27:25;20.23;;;3.70;;
41446;SDS011;27185;52.040;4.490;2023-02-18T10:33:00;22.92;;;3.67;;
41446;SDS011;27185;52.040;4.490;2023-02-18T10:36:04;19.67;;;3.08;;
41446;SDS011;27185;52.040;4.490;2023-02-18T10:41:53;26.27;;;3.88;;
41446;SDS011;27185;52.040;4.490;2023-02-18T10:44:57;19.90;;;2.95;;
41446;SDS011;27185;52.040;4.490;2023-02-18T10:51:14;22.58;;;3.17;;
41446;SDS011;27185;52.040;4.490;2023-02-18T10:54:10;25.08;;;3.47;;
41446;SDS011;27185;52.040;4.490;2023-02-18T10:56:59;29.45;;;3.42;;
41446;SDS011;27185;52.040;4.490;2023-02-18T11:06:29;23.92;;;3.67;;
41446;SDS011;27185;52.040;4.490;2023-02-18T11:09:25;23.33;;;3.17;;
41446;SDS011;27185;52.040;4.490;2023-02-18T11:12:33;24.10;;;3.95;;
41446;SDS011;27185;52.040;4.490;2023-02-18T11:15:31;18.63;;;2.75;;
41446;SDS011;27185;52.040;4.490;2023-02-18T11:21:25;23.38;;;3.70;;
41446;SDS011;27185;52.040;4.490;2023-02-18T11:24:20;26.35;;;4.10;;
41446;SDS011;27185;52.040;4.490;2023-02-18T11:27:09;19.52;;;3.15;;
41446;SDS011;27185;52.040;4.490;2023-02-18T11:29:58;21.52;;;3.53;;
41446;SDS011;27185;52.040;4.490;2023-02-18T11:32:52;25.80;;;3.00;;
41446;SDS011;27185;52.040;4.490;2023-02-18T11:35:40;21.25;;;3.00;;
41446;SDS011;27185;52.040;4.490;2023-02-18T11:38:35;23.17;;;3.22;;
41446;SDS011;27185;52.040;4.490;2023-02-18T11:41:29;22.90;;;2.90;;
41446;SDS011;27185;52.040;4.490;2023-02-18T11:44:34;18.25;;;2.70;;
41446;SDS011;27185;52.040;4.490;2023-02-18T11:47:26;21.90;;;3.70;;
41446;SDS011;27185;52.040;4.490;2023-02-18T11:50:20;21.15;;;2.97;;
41446;SDS011;27185;52.040;4.490;2023-02-18T11:56:17;23.35;;;3.13;;
41446;SDS011;27185;52.040;4.490;2023-02-18T11:59:04;17.15;;;2.65;;
41446;SDS011;27185;52.040;4.490;2023-02-18T12:02:02;22.00;;;2.85;;
41446;SDS011;27185;52.040;4.490;2023-02-18T12:04:57;22.58;;;3.53;;
41446;SDS011;27185;52.040;4.490;2023-02-18T12:11:06;20.60;;;3.55;;
41446;SDS011;27185;52.040;4.490;2023-02-18T12:13:57;15.18;;;2.80;;
41446;SDS011;27185;52.040;4.490;2023-02-18T12:19:50;16.50;;;2.92;;
41446;SDS011;27185;52.040;4.490;2023-02-18T12:29:20;17.13;;;2.33;;
41446;SDS011;27185;52.040;4.490;2023-02-18T12:32:31;21.20;;;2.45;;
41446;SDS011;27185;52.040;4.490;2023-02-18T12:48:17;13.00;;;2.38;;
41446;SDS011;27185;52.040;4.490;2023-02-18T12:51:31;12.88;;;2.17;;
41446;SDS011;27185;52.040;4.490;2023-02-18T12:58:26;16.13;;;2.38;;
41446;SDS011;27185;52.040;4.490;2023-02-18T13:01:10;15.10;;;2.20;;
41446;SDS011;27185;52.040;4.490;2023-02-18T13:04:35;19.73;;;3.53;;
41446;SDS011;27185;52.040;4.490;2023-02-18T13:07:55;21.63;;;2.25;;
41446;SDS011;27185;52.040;4.490;2023-02-18T13:17:04;13.15;;;1.77;;
41446;SDS011;27185;52.040;4.490;2023-02-18T13:19:54;9.25;;;1.52;;
41446;SDS011;27185;52.040;4.490;2023-02-18T13:22:45;15.90;;;2.13;;
41446;SDS011;27185;52.040;4.490;2023-02-18T13:25:36;17.80;;;2.85;;
41446;SDS011;27185;52.040;4.490;2023-02-18T13:28:34;17.23;;;1.90;;
41446;SDS011;27185;52.040;4.490;2023-02-18T13:31:31;17.08;;;2.70;;
41446;SDS011;27185;52.040;4.490;2023-02-18T13:35:26;15.25;;;2.63;;
41446;SDS011;27185;52.040;4.490;2023-02-18T13:41:13;15.00;;;2.15;;
41446;SDS011;27185;52.040;4.490;2023-02-18T13:43:59;13.25;;;2.00;;
41446;SDS011;27185;52.040;4.490;2023-02-18T13:49:36;15.45;;;1.63;;
41446;SDS011;27185;52.040;4.490;2023-02-18T13:52:23;11.90;;;1.75;;
41446;SDS011;27185;52.040;4.490;2023-02-18T13:55:18;8.65;;;1.48;;
41446;SDS011;27185;52.040;4.490;2023-02-18T13:58:14;9.25;;;1.35;;
41446;SDS011;27185;52.040;4.490;2023-02-18T14:03:56;12.90;;;1.85;;
41446;SDS011;27185;52.040;4.490;2023-02-18T14:09:48;8.45;;;1.50;;
41446;SDS011;27185;52.040;4.490;2023-02-18T14:21:03;14.75;;;1.90;;
41446;SDS011;27185;52.040;4.490;2023-02-18T14:26:46;11.73;;;1.50;;
41446;SDS011;27185;52.040;4.490;2023-02-18T14:29:33;13.98;;;2.20;;
41446;SDS011;27185;52.040;4.490;2023-02-18T14:32:18;14.23;;;1.90;;
41446;SDS011;27185;52.040;4.490;2023-02-18T14:38:31;12.82;;;2.70;;
41446;SDS011;27185;52.040;4.490;2023-02-18T14:48:13;14.68;;;2.53;;
41446;SDS011;27185;52.040;4.490;2023-02-18T14:51:14;15.75;;;2.55;;
41446;SDS011;27185;52.040;4.490;2023-02-18T14:54:04;21.30;;;3.33;;
41446;SDS011;27185;52.040;4.490;2023-02-18T14:56:55;22.33;;;3.58;;
41446;SDS011;27185;52.040;4.490;2023-02-18T14:59:47;27.20;;;3.70;;
41446;SDS011;27185;52.040;4.490;2023-02-18T15:02:40;22.42;;;3.60;;
41446;SDS011;27185;52.040;4.490;2023-02-18T15:05:27;24.50;;;3.72;;
41446;SDS011;27185;52.040;4.490;2023-02-18T15:08:19;27.80;;;4.20;;
41446;SDS011;27185;52.040;4.490;2023-02-18T15:11:06;16.42;;;2.83;;
41446;SDS011;27185;52.040;4.490;2023-02-18T15:13:52;22.02;;;2.95;;
41446;SDS011;27185;52.040;4.490;2023-02-18T15:16:38;17.38;;;3.75;;
41446;SDS011;27185;52.040;4.490;2023-02-18T15:19:25;21.60;;;2.67;;
41446;SDS011;27185;52.040;4.490;2023-02-18T15:22:20;18.55;;;3.75;;
41446;SDS011;27185;52.040;4.490;2023-02-18T15:25:10;24.48;;;3.95;;
41446;SDS011;27185;52.040;4.490;2023-02-18T15:27:57;20.15;;;3.30;;
41446;SDS011;27185;52.040;4.490;2023-02-18T15:30:43;27.52;;;3.60;;
41446;SDS011;27185;52.040;4.490;2023-02-18T15:33:29;19.88;;;3.45;;
41446;SDS011;27185;52.040;4.490;2023-02-18T15:36:15;20.65;;;3.40;;
41446;SDS011;27185;52.040;4.490;2023-02-18T15:39:00;27.05;;;3.88;;
41446;SDS011;27185;52.040;4.490;2023-02-18T15:41:51;24.58;;;4.40;;
41446;SDS011;27185;52.040;4.490;2023-02-18T15:44:47;24.80;;;3.33;;
41446;SDS011;27185;52.040;4.490;2023-02-18T15:47:35;24.23;;;3.85;;
41446;SDS011;27185;52.040;4.490;2023-02-18T15:50:36;20.75;;;3.17;;
41446;SDS011;27185;52.040;4.490;2023-02-18T15:53:33;29.70;;;3.63;;
41446;SDS011;27185;52.040;4.490;2023-02-18T15:56:30;27.80;;;4.28;;
41446;SDS011;27185;52.040;4.490;2023-02-18T15:59:34;27.13;;;4.72;;
41446;SDS011;27185;52.040;4.490;2023-02-18T16:02:26;21.13;;;3.47;;
41446;SDS011;27185;52.040;4.490;2023-02-18T16:05:13;23.85;;;4.32;;
41446;SDS011;27185;52.040;4.490;2023-02-18T16:08:00;27.20;;;4.30;;
41446;SDS011;27185;52.040;4.490;2023-02-18T16:10:59;23.30;;;4.13;;
41446;SDS011;27185;52.040;4.490;2023-02-18T16:13:50;30.45;;;4.93;;
41446;SDS011;27185;52.040;4.490;2023-02-18T16:16:36;26.75;;;4.03;;
41446;SDS011;27185;52.040;4.490;2023-02-18T16:19:23;30.60;;;4.25;;
41446;SDS011;27185;52.040;4.490;2023-02-18T16:22:21;17.55;;;3.20;;
41446;SDS011;27185;52.040;4.490;2023-02-18T16:25:25;25.25;;;3.90;;
41446;SDS011;27185;52.040;4.490;2023-02-18T16:28:27;31.38;;;4.47;;
41446;SDS011;27185;52.040;4.490;2023-02-18T16:31:16;28.58;;;4.15;;
41446;SDS011;27185;52.040;4.490;2023-02-18T16:34:02;27.42;;;4.05;;
41446;SDS011;27185;52.040;4.490;2023-02-18T16:36:47;21.90;;;4.15;;
41446;SDS011;27185;52.040;4.490;2023-02-18T16:39:52;22.85;;;4.35;;
41446;SDS011;27185;52.040;4.490;2023-02-18T16:42:39;28.58;;;4.53;;
41446;SDS011;27185;52.040;4.490;2023-02-18T16:45:30;28.50;;;4.45;;
41446;SDS011;27185;52.040;4.490;2023-02-18T16:48:20;21.38;;;3.42;;
41446;SDS011;27185;52.040;4.490;2023-02-18T16:51:16;26.02;;;5.32;;
41446;SDS011;27185;52.040;4.490;2023-02-18T16:54:05;25.45;;;4.55;;
41446;SDS011;27185;52.040;4.490;2023-02-18T16:56:50;26.90;;;5.20;;
41446;SDS011;27185;52.040;4.490;2023-02-18T16:59:36;31.00;;;5.43;;
41446;SDS011;27185;52.040;4.490;2023-02-18T17:02:22;30.02;;;4.40;;
41446;SDS011;27185;52.040;4.490;2023-02-18T17:05:10;29.15;;;5.03;;
41446;SDS011;27185;52.040;4.490;2023-02-18T17:08:16;28.30;;;4.97;;
41446;SDS011;27185;52.040;4.490;2023-02-18T17:11:08;34.55;;;5.32;;
41446;SDS011;27185;52.040;4.490;2023-02-18T17:14:01;35.90;;;5.20;;
41446;SDS011;27185;52.040;4.490;2023-02-18T17:16:49;29.23;;;4.72;;
41446;SDS011;27185;52.040;4.490;2023-02-18T17:19:38;37.22;;;5.50;;
41446;SDS011;27185;52.040;4.490;2023-02-18T17:22:23;32.92;;;5.50;;
41446;SDS011;27185;52.040;4.490;2023-02-18T17:25:54;36.00;;;5.20;;
41446;SDS011;27185;52.040;4.490;2023-02-18T17:28:17;35.60;;;6.53;;
41446;SDS011;27185;52.040;4.490;2023-02-18T17:31:03;28.88;;;4.50;;
41446;SDS011;27185;52.040;4.490;2023-02-18T17:33:49;27.33;;;4.15;;
41446;SDS011;27185;52.040;4.490;2023-02-18T17:36:34;34.88;;;4.82;;
41446;SDS011;27185;52.040;4.490;2023-02-18T17:39:20;40.65;;;6.80;;
41446;SDS011;27185;52.040;4.490;2023-02-18T17:42:09;25.98;;;4.93;;
41446;SDS011;27185;52.040;4.490;2023-02-18T17:44:59;30.27;;;5.30;;
41446;SDS011;27185;52.040;4.490;2023-02-18T17:47:45;36.67;;;7.20;;
41446;SDS011;27185;52.040;4.490;2023-02-18T17:50:31;39.70;;;6.28;;
41446;SDS011;27185;52.040;4.490;2023-02-18T17:53:17;34.20;;;6.65;;
41446;SDS011;27185;52.040;4.490;2023-02-18T17:56:03;34.20;;;6.50;;
41446;SDS011;27185;52.040;4.490;2023-02-18T17:58:48;27.80;;;5.72;;
41446;SDS011;27185;52.040;4.490;2023-02-18T18:01:34;32.88;;;6.38;;
41446;SDS011;27185;52.040;4.490;2023-02-18T18:04:20;34.30;;;6.65;;
41446;SDS011;27185;52.040;4.490;2023-02-18T18:07:05;26.45;;;6.25;;
41446;SDS011;27185;52.040;4.490;2023-02-18T18:09:51;27.58;;;5.32;;
41446;SDS011;27185;52.040;4.490;2023-02-18T18:12:36;40.05;;;7.55;;
41446;SDS011;27185;52.040;4.490;2023-02-18T18:15:27;33.75;;;7.60;;
41446;SDS011;27185;52.040;4.490;2023-02-18T18:18:13;33.63;;;6.07;;
41446;SDS011;27185;52.040;4.490;2023-02-18T18:20:59;39.08;;;7.30;;
41446;SDS011;27185;52.040;4.490;2023-02-18T18:23:45;34.30;;;7.22;;
41446;SDS011;27185;52.040;4.490;2023-02-18T18:26:31;33.60;;;7.45;;
41446;SDS011;27185;52.040;4.490;2023-02-18T18:29:17;32.42;;;8.18;;
41446;SDS011;27185;52.040;4.490;2023-02-18T18:32:02;28.20;;;7.53;;
41446;SDS011;27185;52.040;4.490;2023-02-18T18:34:48;44.13;;;7.70;;
41446;SDS011;27185;52.040;4.490;2023-02-18T18:37:34;30.42;;;7.57;;
41446;SDS011;27185;52.040;4.490;2023-02-18T18:40:20;49.63;;;8.75;;
41446;SDS011;27185;52.040;4.490;2023-02-18T18:43:09;38.08;;;7.55;;
41446;SDS011;27185;52.040;4.490;2023-02-18T18:46:02;39.25;;;7.82;;
41446;SDS011;27185;52.040;4.490;2023-02-18T18:48:48;28.60;;;6.28;;
41446;SDS011;27185;52.040;4.490;2023-02-18T18:51:33;35.38;;;7.85;;
41446;SDS011;27185;52.040;4.490;2023-02-18T18:54:19;30.35;;;6.45;;
41446;SDS011;27185;52.040;4.490;2023-02-18T18:57:05;28.92;;;6.55;;
41446;SDS011;27185;52.040;4.490;2023-02-18T18:59:51;29.02;;;6.60;;
41446;SDS011;27185;52.040;4.490;2023-02-18T19:02:36;29.77;;;6.25;;
41446;SDS011;27185;52.040;4.490;2023-02-18T19:05:41;36.72;;;6.82;;